sensor_id;sensor_type;location;lat;lon;timestamp;P1;durP1;ratioP1;P2;durP2;ratioP2
63016;SDS011;50274;45.640;11.756;2022-08-16T00:02:02;4.65;;;1.88;;
63016;SDS011;50274;45.640;11.756;2022-08-16T00:04:29;6.07;;;2.10;;
63016;SDS011;50274;45.640;11.756;2022-08-16T00:06:55;6.85;;;1.95;;
63016;SDS011;50274;45.640;11.756;2022-08-16T00:09:21;6.25;;;2.28;;
63016;SDS011;50274;45.640;11.756;2022-08-16T00:11:48;5.80;;;2.05;;
63016;SDS011;50274;45.640;11.756;2022-08-16T00:14:16;4.40;;;1.73;;
63016;SDS011;50274;45.640;11.756;2022-08-16T00:16:45;4.73;;;1.93;;
63016;SDS011;50274;45.640;11.756;2022-08-16T00:19:12;5.38;;;2.15;;
63016;SDS011;50274;45.640;11.756;2022-08-16T00:21:41;7.47;;;2.03;;
63016;SDS011;50274;45.640;11.756;2022-08-16T00:24:07;5.00;;;1.70;;
63016;SDS011;50274;45.640;11.756;2022-08-16T00:26:33;6.60;;;2.00;;
63016;SDS011;50274;45.640;11.756;2022-08-16T00:28:59;5.00;;;1.97;;
63016;SDS011;50274;45.640;11.756;2022-08-16T00:31:25;5.32;;;1.98;;
63016;SDS011;50274;45.640;11.756;2022-08-16T00:33:53;4.85;;;1.60;;
63016;SDS011;50274;45.640;11.756;2022-08-16T00:36:19;5.83;;;2.23;;
63016;SDS011;50274;45.640;11.756;2022-08-16T00:38:44;5.25;;;2.00;;
63016;SDS011;50274;45.640;11.756;2022-08-16T00:41:10;4.72;;;1.65;;
63016;SDS011;50274;45.640;11.756;2022-08-16T00:43:36;4.57;;;1.87;;
63016;SDS011;50274;45.640;11.756;2022-08-16T00:46:19;7.07;;;1.83;;
63016;SDS011;50274;45.640;11.756;2022-08-16T00:48:45;5.60;;;1.90;;
63016;SDS011;50274;45.640;11.756;2022-08-16T00:51:13;4.82;;;1.83;;
63016;SDS011;50274;45.640;11.756;2022-08-16T00:53:39;4.90;;;2.00;;
63016;SDS011;50274;45.640;11.756;2022-08-16T00:56:10;4.68;;;2.05;;
63016;SDS011;50274;45.640;11.756;2022-08-16T00:58:40;4.38;;;1.75;;
63016;SDS011;50274;45.640;11.756;2022-08-16T01:01:09;5.75;;;2.00;;
63016;SDS011;50274;45.640;11.756;2022-08-16T01:03:44;7.53;;;2.38;;
63016;SDS011;50274;45.640;11.756;2022-08-16T01:06:30;5.53;;;1.63;;
63016;SDS011;50274;45.640;11.756;2022-08-16T01:09:15;5.63;;;1.80;;
63016;SDS011;50274;45.640;11.756;2022-08-16T01:12:16;5.00;;;2.00;;
63016;SDS011;50274;45.640;11.756;2022-08-16T01:14:58;5.93;;;1.98;;
63016;SDS011;50274;45.640;11.756;2022-08-16T01:17:37;5.68;;;1.90;;
63016;SDS011;50274;45.640;11.756;2022-08-16T01:20:07;4.47;;;1.90;;
63016;SDS011;50274;45.640;11.756;2022-08-16T01:25:21;4.45;;;1.73;;
63016;SDS011;50274;45.640;11.756;2022-08-16T01:27:59;4.47;;;1.98;;
63016;SDS011;50274;45.640;11.756;2022-08-16T01:30:29;4.45;;;1.85;;
63016;SDS011;50274;45.640;11.756;2022-08-16T01:32:58;5.10;;;2.10;;
63016;SDS011;50274;45.640;11.756;2022-08-16T01:40:55;6.95;;;1.90;;
63016;SDS011;50274;45.640;11.756;2022-08-16T01:43:24;6.65;;;1.95;;
63016;SDS011;50274;45.640;11.756;2022-08-16T01:45:54;5.70;;;1.83;;
63016;SDS011;50274;45.640;11.756;2022-08-16T01:48:23;7.53;;;2.28;;
63016;SDS011;50274;45.640;11.756;2022-08-16T01:50:51;5.60;;;2.05;;
63016;SDS011;50274;45.640;11.756;2022-08-16T01:53:18;5.13;;;2.20;;
63016;SDS011;50274;45.640;11.756;2022-08-16T01:55:44;6.10;;;2.30;;
63016;SDS011;50274;45.640;11.756;2022-08-16T01:58:11;5.23;;;1.80;;
63016;SDS011;50274;45.640;11.756;2022-08-16T02:00:38;8.52;;;2.45;;
63016;SDS011;50274;45.640;11.756;2022-08-16T02:03:04;5.75;;;2.47;;
63016;SDS011;50274;45.640;11.756;2022-08-16T02:05:30;4.90;;;2.05;;
63016;SDS011;50274;45.640;11.756;2022-08-16T02:07:56;8.03;;;2.33;;
63016;SDS011;50274;45.640;11.756;2022-08-16T02:10:23;7.15;;;2.08;;
63016;SDS011;50274;45.640;11.756;2022-08-16T02:12:49;5.00;;;2.25;;
63016;SDS011;50274;45.640;11.756;2022-08-16T02:15:16;6.07;;;2.20;;
63016;SDS011;50274;45.640;11.756;2022-08-16T02:17:44;7.63;;;2.40;;
63016;SDS011;50274;45.640;11.756;2022-08-16T02:20:10;5.30;;;2.37;;
63016;SDS011;50274;45.640;11.756;2022-08-16T02:22:36;4.90;;;2.00;;
63016;SDS011;50274;45.640;11.756;2022-08-16T02:25:04;6.35;;;2.50;;
63016;SDS011;50274;45.640;11.756;2022-08-16T02:27:34;8.43;;;2.27;;
63016;SDS011;50274;45.640;11.756;2022-08-16T02:30:00;5.43;;;2.38;;
63016;SDS011;50274;45.640;11.756;2022-08-16T02:32:26;4.97;;;2.08;;
63016;SDS011;50274;45.640;11.756;2022-08-16T02:34:52;5.13;;;2.10;;
63016;SDS011;50274;45.640;11.756;2022-08-16T02:37:17;5.97;;;2.38;;
63016;SDS011;50274;45.640;11.756;2022-08-16T02:39:43;6.07;;;2.00;;
63016;SDS011;50274;45.640;11.756;2022-08-16T02:42:09;5.17;;;2.53;;
63016;SDS011;50274;45.640;11.756;2022-08-16T02:44:35;5.47;;;2.30;;
63016;SDS011;50274;45.640;11.756;2022-08-16T02:47:01;5.30;;;2.17;;
63016;SDS011;50274;45.640;11.756;2022-08-16T02:49:26;6.28;;;2.45;;
63016;SDS011;50274;45.640;11.756;2022-08-16T02:51:52;5.20;;;2.38;;
63016;SDS011;50274;45.640;11.756;2022-08-16T02:54:18;6.82;;;2.20;;
63016;SDS011;50274;45.640;11.756;2022-08-16T02:56:44;10.30;;;2.23;;
63016;SDS011;50274;45.640;11.756;2022-08-16T02:59:11;8.25;;;2.10;;
63016;SDS011;50274;45.640;11.756;2022-08-16T03:01:37;7.03;;;2.20;;
63016;SDS011;50274;45.640;11.756;2022-08-16T03:04:03;9.02;;;2.40;;
63016;SDS011;50274;45.640;11.756;2022-08-16T03:06:30;5.47;;;2.13;;
63016;SDS011;50274;45.640;11.756;2022-08-16T03:08:57;6.47;;;2.30;;
63016;SDS011;50274;45.640;11.756;2022-08-16T03:11:22;5.53;;;2.45;;
63016;SDS011;50274;45.640;11.756;2022-08-16T03:13:53;7.28;;;2.47;;
63016;SDS011;50274;45.640;11.756;2022-08-16T03:16:20;8.38;;;2.58;;
63016;SDS011;50274;45.640;11.756;2022-08-16T03:18:46;12.20;;;2.60;;
63016;SDS011;50274;45.640;11.756;2022-08-16T03:21:12;8.55;;;2.35;;
63016;SDS011;50274;45.640;11.756;2022-08-16T03:23:38;6.78;;;2.78;;
63016;SDS011;50274;45.640;11.756;2022-08-16T03:26:05;10.13;;;2.45;;
63016;SDS011;50274;45.640;11.756;2022-08-16T03:28:31;6.90;;;2.40;;
63016;SDS011;50274;45.640;11.756;2022-08-16T03:30:57;5.10;;;2.25;;
63016;SDS011;50274;45.640;11.756;2022-08-16T03:33:22;6.20;;;2.30;;
63016;SDS011;50274;45.640;11.756;2022-08-16T03:35:49;6.13;;;2.60;;
63016;SDS011;50274;45.640;11.756;2022-08-16T03:38:15;5.13;;;2.17;;
63016;SDS011;50274;45.640;11.756;2022-08-16T03:40:42;7.32;;;2.67;;
63016;SDS011;50274;45.640;11.756;2022-08-16T03:43:11;5.20;;;2.55;;
63016;SDS011;50274;45.640;11.756;2022-08-16T03:45:38;5.30;;;2.40;;
63016;SDS011;50274;45.640;11.756;2022-08-16T03:48:04;11.80;;;2.92;;
63016;SDS011;50274;45.640;11.756;2022-08-16T03:50:31;6.43;;;2.80;;
63016;SDS011;50274;45.640;11.756;2022-08-16T03:52:58;6.85;;;2.75;;
63016;SDS011;50274;45.640;11.756;2022-08-16T03:55:24;8.18;;;3.38;;
63016;SDS011;50274;45.640;11.756;2022-08-16T03:57:49;6.47;;;3.30;;
63016;SDS011;50274;45.640;11.756;2022-08-16T04:00:20;8.45;;;3.05;;
63016;SDS011;50274;45.640;11.756;2022-08-16T04:02:52;6.17;;;3.10;;
63016;SDS011;50274;45.640;11.756;2022-08-16T04:05:20;6.85;;;3.00;;
63016;SDS011;50274;45.640;11.756;2022-08-16T04:07:46;7.13;;;3.40;;
63016;SDS011;50274;45.640;11.756;2022-08-16T04:10:12;6.28;;;3.47;;
63016;SDS011;50274;45.640;11.756;2022-08-16T04:12:39;8.33;;;3.53;;
63016;SDS011;50274;45.640;11.756;2022-08-16T04:15:08;7.80;;;3.63;;
63016;SDS011;50274;45.640;11.756;2022-08-16T04:17:36;5.57;;;3.75;;
63016;SDS011;50274;45.640;11.756;2022-08-16T04:20:03;8.93;;;3.08;;
63016;SDS011;50274;45.640;11.756;2022-08-16T04:22:33;10.82;;;3.53;;
63016;SDS011;50274;45.640;11.756;2022-08-16T04:25:00;5.83;;;2.90;;
63016;SDS011;50274;45.640;11.756;2022-08-16T04:27:27;7.75;;;3.80;;
63016;SDS011;50274;45.640;11.756;2022-08-16T04:29:52;6.78;;;4.00;;
63016;SDS011;50274;45.640;11.756;2022-08-16T04:32:18;8.73;;;4.07;;
63016;SDS011;50274;45.640;11.756;2022-08-16T04:34:44;6.27;;;3.40;;
63016;SDS011;50274;45.640;11.756;2022-08-16T04:37:11;7.28;;;4.00;;
63016;SDS011;50274;45.640;11.756;2022-08-16T04:39:37;8.77;;;4.18;;
63016;SDS011;50274;45.640;11.756;2022-08-16T04:42:03;6.70;;;3.57;;
63016;SDS011;50274;45.640;11.756;2022-08-16T04:44:30;6.45;;;3.72;;
63016;SDS011;50274;45.640;11.756;2022-08-16T04:46:56;9.32;;;4.72;;
63016;SDS011;50274;45.640;11.756;2022-08-16T04:49:22;7.55;;;4.45;;
63016;SDS011;50274;45.640;11.756;2022-08-16T04:51:49;10.48;;;4.70;;
63016;SDS011;50274;45.640;11.756;2022-08-16T04:54:15;7.20;;;3.83;;
63016;SDS011;50274;45.640;11.756;2022-08-16T04:56:42;8.10;;;3.90;;
63016;SDS011;50274;45.640;11.756;2022-08-16T04:59:07;6.88;;;3.72;;
63016;SDS011;50274;45.640;11.756;2022-08-16T05:01:34;7.95;;;4.40;;
63016;SDS011;50274;45.640;11.756;2022-08-16T05:04:00;6.45;;;3.50;;
63016;SDS011;50274;45.640;11.756;2022-08-16T05:06:27;8.43;;;4.13;;
63016;SDS011;50274;45.640;11.756;2022-08-16T05:08:53;8.18;;;3.90;;
63016;SDS011;50274;45.640;11.756;2022-08-16T05:11:19;8.35;;;3.67;;
63016;SDS011;50274;45.640;11.756;2022-08-16T05:13:46;7.60;;;4.53;;
63016;SDS011;50274;45.640;11.756;2022-08-16T05:16:14;8.30;;;4.40;;
63016;SDS011;50274;45.640;11.756;2022-08-16T05:18:43;8.68;;;4.30;;
63016;SDS011;50274;45.640;11.756;2022-08-16T05:21:10;9.02;;;4.50;;
63016;SDS011;50274;45.640;11.756;2022-08-16T05:23:36;7.85;;;4.43;;
63016;SDS011;50274;45.640;11.756;2022-08-16T05:26:02;10.10;;;4.87;;
63016;SDS011;50274;45.640;11.756;2022-08-16T05:28:28;8.40;;;4.03;;
63016;SDS011;50274;45.640;11.756;2022-08-16T05:30:54;7.47;;;4.38;;
63016;SDS011;50274;45.640;11.756;2022-08-16T05:33:20;8.23;;;4.33;;
63016;SDS011;50274;45.640;11.756;2022-08-16T05:35:47;6.60;;;4.22;;
63016;SDS011;50274;45.640;11.756;2022-08-16T05:38:14;9.98;;;5.03;;
63016;SDS011;50274;45.640;11.756;2022-08-16T05:40:40;7.35;;;4.25;;
63016;SDS011;50274;45.640;11.756;2022-08-16T05:43:06;7.30;;;4.00;;
63016;SDS011;50274;45.640;11.756;2022-08-16T05:45:32;7.77;;;4.20;;
63016;SDS011;50274;45.640;11.756;2022-08-16T05:47:58;9.25;;;4.38;;
63016;SDS011;50274;45.640;11.756;2022-08-16T05:50:24;10.25;;;4.47;;
63016;SDS011;50274;45.640;11.756;2022-08-16T05:52:50;6.90;;;4.47;;
63016;SDS011;50274;45.640;11.756;2022-08-16T05:55:16;7.68;;;3.65;;
63016;SDS011;50274;45.640;11.756;2022-08-16T05:57:43;7.22;;;4.18;;
63016;SDS011;50274;45.640;11.756;2022-08-16T06:00:10;6.57;;;4.15;;
63016;SDS011;50274;45.640;11.756;2022-08-16T06:02:38;7.70;;;3.87;;
63016;SDS011;50274;45.640;11.756;2022-08-16T06:05:07;6.63;;;4.18;;
63016;SDS011;50274;45.640;11.756;2022-08-16T06:07:34;9.63;;;4.20;;
63016;SDS011;50274;45.640;11.756;2022-08-16T06:10:00;6.30;;;3.75;;
63016;SDS011;50274;45.640;11.756;2022-08-16T06:12:27;9.32;;;4.00;;
63016;SDS011;50274;45.640;11.756;2022-08-16T06:14:54;5.40;;;2.93;;
63016;SDS011;50274;45.640;11.756;2022-08-16T06:17:26;7.82;;;3.30;;
63016;SDS011;50274;45.640;11.756;2022-08-16T06:19:52;7.78;;;3.60;;
63016;SDS011;50274;45.640;11.756;2022-08-16T06:22:18;5.43;;;3.00;;
63016;SDS011;50274;45.640;11.756;2022-08-16T06:24:44;5.33;;;2.87;;
63016;SDS011;50274;45.640;11.756;2022-08-16T06:27:10;6.13;;;3.00;;
63016;SDS011;50274;45.640;11.756;2022-08-16T06:29:37;5.60;;;3.20;;
63016;SDS011;50274;45.640;11.756;2022-08-16T06:32:03;5.90;;;2.67;;
63016;SDS011;50274;45.640;11.756;2022-08-16T06:34:29;4.70;;;2.57;;
63016;SDS011;50274;45.640;11.756;2022-08-16T06:36:55;4.35;;;2.22;;
63016;SDS011;50274;45.640;11.756;2022-08-16T06:39:21;4.45;;;1.63;;
63016;SDS011;50274;45.640;11.756;2022-08-16T06:41:47;4.30;;;1.50;;
63016;SDS011;50274;45.640;11.756;2022-08-16T06:44:13;4.33;;;1.23;;
63016;SDS011;50274;45.640;11.756;2022-08-16T06:46:38;3.80;;;1.27;;
63016;SDS011;50274;45.640;11.756;2022-08-16T06:49:08;4.57;;;1.20;;
63016;SDS011;50274;45.640;11.756;2022-08-16T06:51:35;3.50;;;1.00;;
63016;SDS011;50274;45.640;11.756;2022-08-16T06:54:03;3.70;;;1.17;;
63016;SDS011;50274;45.640;11.756;2022-08-16T06:56:29;3.40;;;0.93;;
63016;SDS011;50274;45.640;11.756;2022-08-16T06:58:55;3.58;;;1.02;;
63016;SDS011;50274;45.640;11.756;2022-08-16T07:01:21;3.58;;;1.10;;
63016;SDS011;50274;45.640;11.756;2022-08-16T07:03:48;5.17;;;2.50;;
63016;SDS011;50274;45.640;11.756;2022-08-16T07:06:15;12.20;;;7.40;;
63016;SDS011;50274;45.640;11.756;2022-08-16T07:08:42;6.78;;;3.25;;
63016;SDS011;50274;45.640;11.756;2022-08-16T07:11:10;4.57;;;1.85;;
63016;SDS011;50274;45.640;11.756;2022-08-16T07:13:36;5.13;;;1.40;;
63016;SDS011;50274;45.640;11.756;2022-08-16T07:16:03;4.00;;;1.00;;
63016;SDS011;50274;45.640;11.756;2022-08-16T07:18:30;4.57;;;1.33;;
63016;SDS011;50274;45.640;11.756;2022-08-16T07:20:57;4.75;;;1.10;;
63016;SDS011;50274;45.640;11.756;2022-08-16T07:23:23;3.53;;;1.10;;
63016;SDS011;50274;45.640;11.756;2022-08-16T07:25:50;6.30;;;1.40;;
63016;SDS011;50274;45.640;11.756;2022-08-16T07:28:17;4.32;;;1.40;;
63016;SDS011;50274;45.640;11.756;2022-08-16T07:30:44;4.65;;;1.45;;
63016;SDS011;50274;45.640;11.756;2022-08-16T07:33:11;3.60;;;1.30;;
63016;SDS011;50274;45.640;11.756;2022-08-16T07:35:38;5.25;;;1.30;;
63016;SDS011;50274;45.640;11.756;2022-08-16T07:38:04;3.77;;;0.90;;
63016;SDS011;50274;45.640;11.756;2022-08-16T07:40:31;4.43;;;1.20;;
63016;SDS011;50274;45.640;11.756;2022-08-16T07:42:59;3.80;;;1.25;;
63016;SDS011;50274;45.640;11.756;2022-08-16T07:45:26;9.57;;;6.57;;
63016;SDS011;50274;45.640;11.756;2022-08-16T07:47:52;4.50;;;2.10;;
63016;SDS011;50274;45.640;11.756;2022-08-16T07:50:18;5.77;;;1.80;;
63016;SDS011;50274;45.640;11.756;2022-08-16T07:52:44;3.90;;;1.50;;
63016;SDS011;50274;45.640;11.756;2022-08-16T07:55:11;5.35;;;1.50;;
63016;SDS011;50274;45.640;11.756;2022-08-16T07:57:39;3.97;;;1.30;;
63016;SDS011;50274;45.640;11.756;2022-08-16T08:00:06;4.72;;;1.50;;
63016;SDS011;50274;45.640;11.756;2022-08-16T08:02:33;4.05;;;1.10;;
63016;SDS011;50274;45.640;11.756;2022-08-16T08:04:59;3.78;;;1.10;;
63016;SDS011;50274;45.640;11.756;2022-08-16T08:07:25;4.50;;;1.60;;
63016;SDS011;50274;45.640;11.756;2022-08-16T08:09:51;3.85;;;1.30;;
63016;SDS011;50274;45.640;11.756;2022-08-16T08:12:17;3.75;;;1.30;;
63016;SDS011;50274;45.640;11.756;2022-08-16T08:14:44;3.85;;;1.38;;
63016;SDS011;50274;45.640;11.756;2022-08-16T08:17:11;4.53;;;1.40;;
63016;SDS011;50274;45.640;11.756;2022-08-16T08:19:37;5.22;;;1.50;;
63016;SDS011;50274;45.640;11.756;2022-08-16T08:22:03;4.22;;;1.40;;
63016;SDS011;50274;45.640;11.756;2022-08-16T08:24:30;3.78;;;1.48;;
63016;SDS011;50274;45.640;11.756;2022-08-16T08:27:01;3.93;;;1.40;;
63016;SDS011;50274;45.640;11.756;2022-08-16T08:29:28;5.00;;;1.30;;
63016;SDS011;50274;45.640;11.756;2022-08-16T08:31:54;4.15;;;1.40;;
63016;SDS011;50274;45.640;11.756;2022-08-16T08:34:20;4.50;;;2.00;;
63016;SDS011;50274;45.640;11.756;2022-08-16T08:36:46;5.25;;;2.22;;
63016;SDS011;50274;45.640;11.756;2022-08-16T08:39:15;4.87;;;2.50;;
63016;SDS011;50274;45.640;11.756;2022-08-16T08:41:42;5.82;;;1.98;;
63016;SDS011;50274;45.640;11.756;2022-08-16T08:44:11;6.18;;;1.70;;
63016;SDS011;50274;45.640;11.756;2022-08-16T08:46:39;4.32;;;1.52;;
63016;SDS011;50274;45.640;11.756;2022-08-16T08:49:06;5.55;;;1.80;;
63016;SDS011;50274;45.640;11.756;2022-08-16T08:51:33;5.10;;;1.60;;
63016;SDS011;50274;45.640;11.756;2022-08-16T08:54:00;4.68;;;1.60;;
63016;SDS011;50274;45.640;11.756;2022-08-16T08:56:28;5.30;;;1.30;;
63016;SDS011;50274;45.640;11.756;2022-08-16T08:58:57;4.10;;;1.60;;
63016;SDS011;50274;45.640;11.756;2022-08-16T09:01:24;5.07;;;1.33;;
63016;SDS011;50274;45.640;11.756;2022-08-16T09:03:53;4.50;;;1.63;;
63016;SDS011;50274;45.640;11.756;2022-08-16T09:06:19;4.72;;;1.50;;
63016;SDS011;50274;45.640;11.756;2022-08-16T09:08:45;4.07;;;1.40;;
63016;SDS011;50274;45.640;11.756;2022-08-16T09:11:11;3.67;;;1.30;;
63016;SDS011;50274;45.640;11.756;2022-08-16T09:13:37;4.30;;;1.67;;
63016;SDS011;50274;45.640;11.756;2022-08-16T09:16:03;3.67;;;1.50;;
63016;SDS011;50274;45.640;11.756;2022-08-16T09:18:29;4.47;;;1.57;;
63016;SDS011;50274;45.640;11.756;2022-08-16T09:20:55;4.50;;;1.90;;
63016;SDS011;50274;45.640;11.756;2022-08-16T09:23:21;5.05;;;1.70;;
63016;SDS011;50274;45.640;11.756;2022-08-16T09:25:49;4.93;;;1.60;;
63016;SDS011;50274;45.640;11.756;2022-08-16T09:28:16;4.43;;;1.70;;
63016;SDS011;50274;45.640;11.756;2022-08-16T09:30:42;3.97;;;1.53;;
63016;SDS011;50274;45.640;11.756;2022-08-16T09:33:08;3.88;;;1.50;;
63016;SDS011;50274;45.640;11.756;2022-08-16T09:35:35;4.03;;;1.50;;
63016;SDS011;50274;45.640;11.756;2022-08-16T09:38:02;5.18;;;1.88;;
63016;SDS011;50274;45.640;11.756;2022-08-16T09:40:28;5.53;;;1.63;;
63016;SDS011;50274;45.640;11.756;2022-08-16T09:42:56;4.32;;;1.40;;
63016;SDS011;50274;45.640;11.756;2022-08-16T09:45:22;4.22;;;1.77;;
63016;SDS011;50274;45.640;11.756;2022-08-16T09:47:50;5.70;;;1.50;;
63016;SDS011;50274;45.640;11.756;2022-08-16T09:50:19;3.78;;;1.65;;
63016;SDS011;50274;45.640;11.756;2022-08-16T09:52:46;4.30;;;1.63;;
63016;SDS011;50274;45.640;11.756;2022-08-16T09:55:12;3.75;;;1.45;;
63016;SDS011;50274;45.640;11.756;2022-08-16T09:57:39;4.18;;;1.63;;
63016;SDS011;50274;45.640;11.756;2022-08-16T10:00:06;4.13;;;1.60;;
63016;SDS011;50274;45.640;11.756;2022-08-16T10:02:34;3.58;;;1.60;;
63016;SDS011;50274;45.640;11.756;2022-08-16T10:05:02;4.20;;;1.70;;
63016;SDS011;50274;45.640;11.756;2022-08-16T10:07:29;4.75;;;1.85;;
63016;SDS011;50274;45.640;11.756;2022-08-16T10:09:56;5.85;;;1.60;;
63016;SDS011;50274;45.640;11.756;2022-08-16T10:12:24;4.20;;;1.50;;
63016;SDS011;50274;45.640;11.756;2022-08-16T10:15:15;5.18;;;1.80;;
63016;SDS011;50274;45.640;11.756;2022-08-16T10:17:45;3.60;;;1.47;;
63016;SDS011;50274;45.640;11.756;2022-08-16T10:20:13;4.43;;;1.65;;
63016;SDS011;50274;45.640;11.756;2022-08-16T10:22:39;3.50;;;1.33;;
63016;SDS011;50274;45.640;11.756;2022-08-16T10:25:06;3.95;;;1.27;;
63016;SDS011;50274;45.640;11.756;2022-08-16T10:27:32;5.33;;;1.70;;
63016;SDS011;50274;45.640;11.756;2022-08-16T10:29:59;4.28;;;1.63;;
63016;SDS011;50274;45.640;11.756;2022-08-16T10:32:26;4.40;;;1.70;;
63016;SDS011;50274;45.640;11.756;2022-08-16T10:34:52;4.60;;;1.55;;
63016;SDS011;50274;45.640;11.756;2022-08-16T10:37:18;3.70;;;1.47;;
63016;SDS011;50274;45.640;11.756;2022-08-16T10:39:44;4.63;;;1.60;;
63016;SDS011;50274;45.640;11.756;2022-08-16T10:42:10;3.92;;;1.67;;
63016;SDS011;50274;45.640;11.756;2022-08-16T10:44:36;3.88;;;1.50;;
63016;SDS011;50274;45.640;11.756;2022-08-16T10:47:02;4.07;;;1.50;;
63016;SDS011;50274;45.640;11.756;2022-08-16T10:49:29;4.57;;;1.50;;
63016;SDS011;50274;45.640;11.756;2022-08-16T10:51:55;3.90;;;1.48;;
63016;SDS011;50274;45.640;11.756;2022-08-16T10:54:21;4.25;;;1.55;;
63016;SDS011;50274;45.640;11.756;2022-08-16T10:56:48;4.00;;;1.60;;
63016;SDS011;50274;45.640;11.756;2022-08-16T10:59:14;5.60;;;2.25;;
63016;SDS011;50274;45.640;11.756;2022-08-16T11:01:40;5.13;;;1.67;;
63016;SDS011;50274;45.640;11.756;2022-08-16T11:04:06;4.57;;;1.70;;
63016;SDS011;50274;45.640;11.756;2022-08-16T11:06:32;4.43;;;1.75;;
63016;SDS011;50274;45.640;11.756;2022-08-16T11:08:58;4.10;;;1.60;;
63016;SDS011;50274;45.640;11.756;2022-08-16T11:11:24;4.72;;;1.85;;
63016;SDS011;50274;45.640;11.756;2022-08-16T11:13:50;4.38;;;1.90;;
63016;SDS011;50274;45.640;11.756;2022-08-16T11:16:17;3.80;;;1.60;;
63016;SDS011;50274;45.640;11.756;2022-08-16T11:18:43;4.03;;;1.60;;
63016;SDS011;50274;45.640;11.756;2022-08-16T11:21:10;4.18;;;1.73;;
63016;SDS011;50274;45.640;11.756;2022-08-16T11:23:37;5.03;;;2.20;;
63016;SDS011;50274;45.640;11.756;2022-08-16T11:26:03;5.18;;;1.90;;
63016;SDS011;50274;45.640;11.756;2022-08-16T11:28:29;4.87;;;1.50;;
63016;SDS011;50274;45.640;11.756;2022-08-16T11:30:57;5.13;;;1.88;;
63016;SDS011;50274;45.640;11.756;2022-08-16T11:33:23;4.00;;;1.80;;
63016;SDS011;50274;45.640;11.756;2022-08-16T11:35:50;3.92;;;1.85;;
63016;SDS011;50274;45.640;11.756;2022-08-16T11:38:18;4.93;;;1.77;;
63016;SDS011;50274;45.640;11.756;2022-08-16T11:40:47;6.03;;;2.17;;
63016;SDS011;50274;45.640;11.756;2022-08-16T11:43:20;5.80;;;2.00;;
63016;SDS011;50274;45.640;11.756;2022-08-16T11:45:55;7.53;;;2.15;;
63016;SDS011;50274;45.640;11.756;2022-08-16T11:48:23;5.15;;;2.08;;
63016;SDS011;50274;45.640;11.756;2022-08-16T11:50:51;4.65;;;1.80;;
63016;SDS011;50274;45.640;11.756;2022-08-16T11:53:17;3.87;;;1.60;;
63016;SDS011;50274;45.640;11.756;2022-08-16T11:55:44;4.47;;;1.70;;
63016;SDS011;50274;45.640;11.756;2022-08-16T11:58:10;5.25;;;1.90;;
63016;SDS011;50274;45.640;11.756;2022-08-16T12:00:37;5.22;;;1.90;;
63016;SDS011;50274;45.640;11.756;2022-08-16T12:03:04;3.73;;;1.50;;
63016;SDS011;50274;45.640;11.756;2022-08-16T12:05:30;3.97;;;1.67;;
63016;SDS011;50274;45.640;11.756;2022-08-16T12:07:56;5.05;;;1.95;;
63016;SDS011;50274;45.640;11.756;2022-08-16T12:10:23;4.85;;;2.00;;
63016;SDS011;50274;45.640;11.756;2022-08-16T12:12:51;4.82;;;1.85;;
63016;SDS011;50274;45.640;11.756;2022-08-16T12:15:18;4.47;;;1.73;;
63016;SDS011;50274;45.640;11.756;2022-08-16T12:17:44;4.68;;;1.80;;
63016;SDS011;50274;45.640;11.756;2022-08-16T12:20:13;6.10;;;1.73;;
63016;SDS011;50274;45.640;11.756;2022-08-16T12:22:41;4.22;;;1.70;;
63016;SDS011;50274;45.640;11.756;2022-08-16T12:25:09;3.70;;;1.70;;
63016;SDS011;50274;45.640;11.756;2022-08-16T12:27:38;5.17;;;1.70;;
63016;SDS011;50274;45.640;11.756;2022-08-16T12:30:05;5.05;;;2.00;;
63016;SDS011;50274;45.640;11.756;2022-08-16T12:32:33;5.22;;;1.90;;
63016;SDS011;50274;45.640;11.756;2022-08-16T12:34:59;5.43;;;1.70;;
63016;SDS011;50274;45.640;11.756;2022-08-16T12:37:26;5.78;;;1.60;;
63016;SDS011;50274;45.640;11.756;2022-08-16T12:39:53;4.40;;;1.83;;
63016;SDS011;50274;45.640;11.756;2022-08-16T12:42:21;6.28;;;1.92;;
63016;SDS011;50274;45.640;11.756;2022-08-16T12:44:48;4.40;;;1.42;;
63016;SDS011;50274;45.640;11.756;2022-08-16T12:47:14;6.90;;;1.77;;
63016;SDS011;50274;45.640;11.756;2022-08-16T12:49:59;5.32;;;2.22;;
63016;SDS011;50274;45.640;11.756;2022-08-16T12:52:26;4.57;;;1.60;;
63016;SDS011;50274;45.640;11.756;2022-08-16T12:54:52;4.13;;;1.60;;
63016;SDS011;50274;45.640;11.756;2022-08-16T12:57:20;4.90;;;1.70;;
63016;SDS011;50274;45.640;11.756;2022-08-16T12:59:48;5.43;;;1.85;;
63016;SDS011;50274;45.640;11.756;2022-08-16T13:02:14;5.30;;;2.00;;
63016;SDS011;50274;45.640;11.756;2022-08-16T13:04:40;4.93;;;1.83;;
63016;SDS011;50274;45.640;11.756;2022-08-16T13:07:06;5.60;;;2.15;;
63016;SDS011;50274;45.640;11.756;2022-08-16T13:09:32;4.43;;;1.90;;
63016;SDS011;50274;45.640;11.756;2022-08-16T13:12:06;5.57;;;1.70;;
63016;SDS011;50274;45.640;11.756;2022-08-16T13:14:44;5.70;;;1.80;;
63016;SDS011;50274;45.640;11.756;2022-08-16T13:17:14;4.63;;;1.88;;
63016;SDS011;50274;45.640;11.756;2022-08-16T13:19:44;3.63;;;1.45;;
63016;SDS011;50274;45.640;11.756;2022-08-16T13:22:10;4.72;;;1.80;;
63016;SDS011;50274;45.640;11.756;2022-08-16T13:24:36;4.70;;;1.80;;
63016;SDS011;50274;45.640;11.756;2022-08-16T13:27:02;5.70;;;2.20;;
63016;SDS011;50274;45.640;11.756;2022-08-16T13:29:28;4.13;;;1.50;;
63016;SDS011;50274;45.640;11.756;2022-08-16T13:31:54;4.95;;;1.55;;
63016;SDS011;50274;45.640;11.756;2022-08-16T13:34:21;4.43;;;1.77;;
63016;SDS011;50274;45.640;11.756;2022-08-16T13:36:47;4.75;;;1.58;;
63016;SDS011;50274;45.640;11.756;2022-08-16T13:39:13;7.07;;;1.70;;
63016;SDS011;50274;45.640;11.756;2022-08-16T13:41:41;5.90;;;1.85;;
63016;SDS011;50274;45.640;11.756;2022-08-16T13:44:07;4.45;;;1.90;;
63016;SDS011;50274;45.640;11.756;2022-08-16T13:46:33;5.87;;;1.70;;
63016;SDS011;50274;45.640;11.756;2022-08-16T13:48:59;4.05;;;1.90;;
63016;SDS011;50274;45.640;11.756;2022-08-16T13:51:26;4.53;;;1.70;;
63016;SDS011;50274;45.640;11.756;2022-08-16T13:53:54;5.50;;;1.50;;
63016;SDS011;50274;45.640;11.756;2022-08-16T13:56:22;5.53;;;1.90;;
63016;SDS011;50274;45.640;11.756;2022-08-16T13:58:49;4.38;;;1.80;;
63016;SDS011;50274;45.640;11.756;2022-08-16T14:01:16;4.80;;;1.80;;
63016;SDS011;50274;45.640;11.756;2022-08-16T14:03:44;6.55;;;2.00;;
63016;SDS011;50274;45.640;11.756;2022-08-16T14:06:11;7.30;;;4.63;;
63016;SDS011;50274;45.640;11.756;2022-08-16T14:08:38;6.10;;;2.55;;
63016;SDS011;50274;45.640;11.756;2022-08-16T14:11:05;4.60;;;2.03;;
63016;SDS011;50274;45.640;11.756;2022-08-16T14:13:31;4.07;;;1.85;;
63016;SDS011;50274;45.640;11.756;2022-08-16T14:15:58;5.22;;;1.70;;
63016;SDS011;50274;45.640;11.756;2022-08-16T14:18:24;6.30;;;3.33;;
63016;SDS011;50274;45.640;11.756;2022-08-16T14:20:50;5.35;;;2.40;;
63016;SDS011;50274;45.640;11.756;2022-08-16T14:23:16;6.40;;;3.20;;
63016;SDS011;50274;45.640;11.756;2022-08-16T14:25:42;5.38;;;2.40;;
63016;SDS011;50274;45.640;11.756;2022-08-16T14:28:08;4.93;;;1.97;;
63016;SDS011;50274;45.640;11.756;2022-08-16T14:30:34;5.60;;;1.92;;
63016;SDS011;50274;45.640;11.756;2022-08-16T14:33:00;4.05;;;1.70;;
63016;SDS011;50274;45.640;11.756;2022-08-16T14:35:29;5.90;;;1.80;;
63016;SDS011;50274;45.640;11.756;2022-08-16T14:37:56;3.80;;;1.50;;
63016;SDS011;50274;45.640;11.756;2022-08-16T14:40:23;5.05;;;2.10;;
63016;SDS011;50274;45.640;11.756;2022-08-16T14:42:49;7.70;;;2.28;;